• Join FlightAware (Why Join?)
  • Login
  • US Flag 
03:21PM EST


 

Airport Tracker/Info


-or-


 

Live Flight TrackerFlight Track Log ✈ EJA396 ✈ 24-Jul-2013 ✈ KUGN - KLGA

Flight Track Log - Related Links

Times and Time Zones

All times are in EDT time to prevent confusion due to time zone crossing. See the EJA396 flight status page for this flight to view local times or setup timezone preferences in your user account.

Time Position Orientation Groundspeed Altitude Reporting Facility
EDT Latitude Longitude Course Direction KTS MPH feet Rate Location/Type
05:37PM 42.4333 -87.8333 144° Southeast 189 217 2,200  Level Chicago TRACON
05:38PM 42.3833 -87.7833 144° Southeast 248 285 5,400 3,420 Climbing Chicago TRACON
05:39PM 42.3167 -87.7833 180° South 258 297 9,100 3,360 Climbing Chicago TRACON
05:40PM 42.2175 -87.7453 164° South 307 353 13,300 2,700 Climbing Chicago Center
05:41PM 42.1392 -87.6372 134° Southeast 366 421 15,600 2,580 Climbing Chicago Center
05:43PM 42.1397 -87.5050 90° East 355 409 18,700 3,240 Climbing Chicago Center
05:44PM 42.1439 -87.3736 88° East 353 406 22,300 3,000 Climbing Chicago Center
05:45PM 42.1342 -87.2389 96° East 359 413 24,900 2,460 Climbing Chicago Center
05:46PM 42.1267 -87.0969 94° East 377 434 27,500 2,700 Climbing Chicago Center
05:47PM 42.1144 -86.9236 95° East 387 445 30,600 1,740 Climbing Chicago Center
05:48PM 42.1072 -86.7747 94° East 401 461 31,200 840 Climbing Chicago Center
05:49PM 42.1169 -86.6011 86° East 442 509 32,400 1,080 Climbing Chicago Center
05:50PM 42.1231 -86.4300 87° East 454 522 33,500 1,020 Climbing Chicago Center
05:51PM 42.1297 -86.2550 87° East 462 532 34,600 1,020 Climbing Chicago Center
05:52PM 42.1214 -86.0786 94° East 475 547 35,700 1,020 Climbing Chicago Center
05:53PM 42.1069 -85.9044 96° East 474 545 36,800 600 Climbing Chicago Center
05:54PM 42.0919 -85.7286 96° East 476 548 37,000 60 Climbing Chicago Center
05:55PM 42.0744 -85.5097 96° East 490 564 37,000  Level Chicago Center
05:56PM 42.0586 -85.3264 97° East 495 570 37,000  Level Chicago Center
05:57PM 42.0439 -85.1411 96° East 498 573 37,000  Level Chicago Center
05:58PM 42.0278 -84.9542 97° East 504 580 37,000  Level Chicago Center
05:59PM 42.0128 -84.7700 96° East 501 577 37,000  Level Chicago Center
06:00PM 41.9914 -84.5519 97° East 496 571 37,000  Level Chicago Center
06:01PM 41.9753 -84.3661 97° East 500 575 37,000  Level Chicago Center
06:02PM 41.9597 -84.2497 100° East 503 579 37,000  Level Cleveland Center
06:03PM 41.9425 -84.0672 97° East 503 579 37,000  Level Cleveland Center
06:04PM 41.9233 -83.8653 97° East 498 573 37,000  Level Cleveland Center
06:05PM 41.9033 -83.6828 98° East 498 573 37,000  Level Cleveland Center
06:06PM 41.8875 -83.5008 97° East 492 566 37,000  Level Cleveland Center
06:07PM 41.8689 -83.3186 98° East 492 566 37,000  Level Cleveland Center
06:08PM 41.8481 -83.1364 99° East 492 566 37,000  Level Cleveland Center
06:09PM 41.8292 -82.9547 98° East 487 560 37,000  Level Cleveland Center
06:10PM 41.8119 -82.7728 97° East 487 560 37,000  Level Cleveland Center
06:11PM 41.7903 -82.5911 99° East 487 560 37,000  Level Cleveland Center
06:12PM 41.7703 -82.4122 98° East 487 560 37,000  Level Cleveland Center
06:13PM 41.7522 -82.2308 98° East 487 560 37,000  Level Cleveland Center
06:14PM 41.7317 -82.0550 99° East 480 552 37,000  Level Cleveland Center
06:15PM 41.7131 -81.8767 98° East 485 558 37,000  Level Cleveland Center
06:16PM 41.6919 -81.6981 99° East 485 558 37,000  Level Cleveland Center
06:17PM 41.6725 -81.5367 99° East 485 558 37,000  Level Cleveland Center
06:18PM 41.6508 -81.3556 99° East 485 558 37,000  Level Cleveland Center
06:19PM 41.6292 -81.1803 99° East 485 558 37,000  Level Cleveland Center
06:20PM 41.6069 -81.0025 99° East 485 558 37,000  Level Cleveland Center
06:21PM 41.5825 -80.8053 99° East 485 558 37,000  Level Cleveland Center
06:22PM 41.5597 -80.6247 100° East 485 558 37,000  Level Cleveland Center
06:23PM 41.5367 -80.4472 100° East 485 558 37,000  Level Cleveland Center
06:24PM 41.5178 -80.2892 99° East 485 558 37,000  Level Cleveland Center
06:25PM 41.4961 -80.1092 99° East 485 558 37,000  Level Cleveland Center
06:26PM 41.4703 -79.9319 101° East 485 558 37,000  Level Cleveland Center
06:27PM 41.4442 -79.7522 101° East 485 558 37,000  Level Cleveland Center
06:28PM 41.4197 -79.5725 100° East 490 564 37,000  Level Cleveland Center
06:29PM 41.3953 -79.3931 100° East 490 564 37,000  Level Cleveland Center
06:30PM 41.3703 -79.2108 100° East 490 564 37,000  Level Cleveland Center
06:31PM 41.3450 -79.0369 101° East 490 564 37,000  Level Cleveland Center
06:32PM 41.3192 -78.8358 100° East 485 558 37,000  Level Cleveland Center
06:33PM 41.2933 -78.6569 101° East 485 558 37,000 -960 Level Cleveland Center
06:35PM 41.2286 -78.2311 101° East 482 555 33,900 -1,200 Descending New York Center
06:36PM 41.2019 -78.0572 101° East 482 555 33,000 -480 Descending New York Center
06:37PM 41.1817 -77.8756 98° East 487 560 33,000  Level New York Center
06:38PM 41.1589 -77.6994 100° East 487 560 33,000 -780 Level New York Center
06:40PM 41.1340 -77.5123 100° East  Level FlightAware Approximate
06:40PM 41.1153 -77.3644 100° East 487 560 30,700  Level New York Center
06:41PM 41.0919 -77.1833 100° East 481 554 28,800 -1,920 Descending New York Center
06:42PM 41.0678 -77.0131 101° East 481 554 26,900 -1,860 Descending New York Center
06:43PM 41.0453 -76.8431 100° East 476 548 25,100 -960 Descending New York Center
06:44PM 41.0225 -76.6761 100° East 469 540 25,000 -660 Descending New York Center
06:45PM 40.9864 -76.5217 107° East 458 527 23,800 -1,860 Descending New York Center
06:46PM 40.9517 -76.3731 107° East 440 506 21,300 -2,700 Descending New York Center
06:47PM 40.9133 -76.2161 108° East 412 474 18,600 -2,220 Descending New York Center
06:48PM 40.8803 -76.0708 107° East 407 468 16,900 -1,560 Descending New York Center
06:49PM 40.8503 -75.9506 108° East 402 463 15,500 -1,620 Descending New York Center
06:50PM 40.8183 -75.8192 108° East 388 447 13,700 -1,260 Descending New York Center
06:51PM 40.7806 -75.6767 109° East 378 435 13,000 -360 Descending New York Center
06:52PM 40.7400 -75.5475 112° Southeast 372 428 13,000 -180 Level New York Center
06:53PM 40.7031 -75.4300 112° Southeast 379 436 12,700 -720 Descending New York Center
06:54PM 40.6642 -75.3044 112° Southeast 379 436 11,600 -1,200 Descending New York Center
06:55PM 40.6214 -75.1703 113° Southeast 374 430 10,400 -840 Descending New York Center
06:56PM 40.5819 -75.0475 113° Southeast 363 418 10,000 -240 Descending New York Center
06:57PM 40.5464 -74.9361 113° Southeast 363 418 10,000  Level New York Center
06:58PM 40.5128 -74.8219 111° Southeast 346 398 10,000  Level New York Center
06:59PM 40.4808 -74.7192 112° Southeast 312 359 10,000  Level New York Center
07:00PM 40.4489 -74.6164 112° Southeast 307 353 10,000  Level New York Center
07:01PM 40.4403 -74.4961 95° East 294 338 10,000 -300 Level New York Center
07:02PM 40.4683 -74.3992 69° East 294 338 9,400 -1,020 Descending New York Center
07:03PM 40.5086 -74.3114 59° Northeast 301 346 8,000 -1,500 Descending New York Center
07:04PM 40.5617 -74.2075 56° Northeast 294 338 6,500 -1,500 Descending New York Center
07:05PM 40.5989 -74.1411 54° Northeast 250 288 5,000 -1,500 Descending New York Center
07:06PM 40.6500 -74.0667 48° Northeast 219 252 3,300 -1,200 Descending New York TRACON
07:07PM 40.6833 -74.0000 57° Northeast 212 244 2,500 -420 Descending New York TRACON
07:08PM 40.7167 -73.9333 57° Northeast 208 239 2,500 -540 Level New York TRACON
07:09PM 40.7333 -73.8833 66° East 154 177 1,500 -900 Descending New York TRACON
07:10PM 40.7500 -73.8333 66° East 136 157 700 -840 Descending New York TRACON
07:13PM 40.7667 -73.8667 30° Northeast  Level FlightAware Approximate
07:20PM 40.7772 -73.8726 30° Northeast  Level Estimated